sensor_id;sensor_type;location;lat;lon;timestamp;P1;durP1;ratioP1;P2;durP2;ratioP2
26540;SDS011;14206;50.202;10.948;2023-03-14T00:01:14;1.10;;;1.00;;
26540;SDS011;14206;50.202;10.948;2023-03-14T00:03:43;0.77;;;0.77;;
26540;SDS011;14206;50.202;10.948;2023-03-14T00:06:10;1.75;;;0.90;;
26540;SDS011;14206;50.202;10.948;2023-03-14T00:08:37;0.80;;;0.80;;
26540;SDS011;14206;50.202;10.948;2023-03-14T00:11:06;1.00;;;0.85;;
26540;SDS011;14206;50.202;10.948;2023-03-14T00:13:37;1.30;;;0.73;;
26540;SDS011;14206;50.202;10.948;2023-03-14T00:16:04;1.13;;;0.80;;
26540;SDS011;14206;50.202;10.948;2023-03-14T00:18:33;1.70;;;0.90;;
26540;SDS011;14206;50.202;10.948;2023-03-14T00:21:00;0.82;;;0.73;;
26540;SDS011;14206;50.202;10.948;2023-03-14T00:23:29;1.05;;;0.90;;
26540;SDS011;14206;50.202;10.948;2023-03-14T00:26:00;3.35;;;1.08;;
26540;SDS011;14206;50.202;10.948;2023-03-14T00:28:32;1.27;;;0.90;;
26540;SDS011;14206;50.202;10.948;2023-03-14T00:31:01;1.02;;;0.70;;
26540;SDS011;14206;50.202;10.948;2023-03-14T00:33:32;1.08;;;0.70;;
26540;SDS011;14206;50.202;10.948;2023-03-14T00:36:00;2.58;;;0.85;;
26540;SDS011;14206;50.202;10.948;2023-03-14T00:38:32;0.98;;;0.73;;
26540;SDS011;14206;50.202;10.948;2023-03-14T00:40:59;1.02;;;0.70;;
26540;SDS011;14206;50.202;10.948;2023-03-14T00:43:30;1.20;;;0.70;;
26540;SDS011;14206;50.202;10.948;2023-03-14T00:45:56;1.10;;;0.68;;
26540;SDS011;14206;50.202;10.948;2023-03-14T00:48:25;0.65;;;0.60;;
26540;SDS011;14206;50.202;10.948;2023-03-14T00:50:53;1.08;;;0.52;;
26540;SDS011;14206;50.202;10.948;2023-03-14T00:53:20;0.60;;;0.52;;
26540;SDS011;14206;50.202;10.948;2023-03-14T00:55:47;1.10;;;0.80;;
26540;SDS011;14206;50.202;10.948;2023-03-14T00:58:15;0.55;;;0.55;;
26540;SDS011;14206;50.202;10.948;2023-03-14T01:00:43;2.47;;;0.60;;
26540;SDS011;14206;50.202;10.948;2023-03-14T01:03:11;0.55;;;0.40;;
26540;SDS011;14206;50.202;10.948;2023-03-14T01:05:39;1.88;;;0.40;;
26540;SDS011;14206;50.202;10.948;2023-03-14T01:08:07;0.60;;;0.60;;
26540;SDS011;14206;50.202;10.948;2023-03-14T01:10:34;0.43;;;0.40;;
26540;SDS011;14206;50.202;10.948;2023-03-14T01:13:05;0.95;;;0.65;;
26540;SDS011;14206;50.202;10.948;2023-03-14T01:15:32;0.60;;;0.60;;
26540;SDS011;14206;50.202;10.948;2023-03-14T01:18:01;0.52;;;0.43;;
26540;SDS011;14206;50.202;10.948;2023-03-14T01:20:27;0.85;;;0.57;;
26540;SDS011;14206;50.202;10.948;2023-03-14T01:22:54;0.52;;;0.50;;
26540;SDS011;14206;50.202;10.948;2023-03-14T01:25:21;0.50;;;0.50;;
26540;SDS011;14206;50.202;10.948;2023-03-14T01:27:49;0.50;;;0.50;;
26540;SDS011;14206;50.202;10.948;2023-03-14T01:30:16;1.23;;;0.50;;
26540;SDS011;14206;50.202;10.948;2023-03-14T01:32:43;0.47;;;0.47;;
26540;SDS011;14206;50.202;10.948;2023-03-14T01:35:10;0.68;;;0.57;;
26540;SDS011;14206;50.202;10.948;2023-03-14T01:37:37;0.52;;;0.50;;
26540;SDS011;14206;50.202;10.948;2023-03-14T01:40:06;2.15;;;0.50;;
26540;SDS011;14206;50.202;10.948;2023-03-14T01:42:36;0.50;;;0.50;;
26540;SDS011;14206;50.202;10.948;2023-03-14T01:45:03;0.38;;;0.30;;
26540;SDS011;14206;50.202;10.948;2023-03-14T01:47:30;0.90;;;0.50;;
26540;SDS011;14206;50.202;10.948;2023-03-14T01:50:04;0.40;;;0.40;;
26540;SDS011;14206;50.202;10.948;2023-03-14T01:52:38;1.10;;;0.43;;
26540;SDS011;14206;50.202;10.948;2023-03-14T01:55:21;0.85;;;0.35;;
26540;SDS011;14206;50.202;10.948;2023-03-14T01:57:51;0.52;;;0.30;;
26540;SDS011;14206;50.202;10.948;2023-03-14T02:00:26;0.47;;;0.47;;
26540;SDS011;14206;50.202;10.948;2023-03-14T02:02:55;0.40;;;0.40;;
26540;SDS011;14206;50.202;10.948;2023-03-14T02:05:28;0.40;;;0.30;;
26540;SDS011;14206;50.202;10.948;2023-03-14T02:08:02;0.60;;;0.50;;
26540;SDS011;14206;50.202;10.948;2023-03-14T02:10:40;0.60;;;0.40;;
26540;SDS011;14206;50.202;10.948;2023-03-14T02:13:10;0.68;;;0.50;;
26540;SDS011;14206;50.202;10.948;2023-03-14T02:15:48;0.40;;;0.40;;
26540;SDS011;14206;50.202;10.948;2023-03-14T02:18:38;0.63;;;0.52;;
26540;SDS011;14206;50.202;10.948;2023-03-14T02:24:17;0.80;;;0.47;;
26540;SDS011;14206;50.202;10.948;2023-03-14T02:27:16;0.80;;;0.50;;
26540;SDS011;14206;50.202;10.948;2023-03-14T02:29:48;0.73;;;0.30;;
26540;SDS011;14206;50.202;10.948;2023-03-14T02:32:19;0.40;;;0.40;;
26540;SDS011;14206;50.202;10.948;2023-03-14T02:34:49;0.50;;;0.50;;
26540;SDS011;14206;50.202;10.948;2023-03-14T02:37:23;0.90;;;0.40;;
26540;SDS011;14206;50.202;10.948;2023-03-14T02:39:55;0.50;;;0.40;;
26540;SDS011;14206;50.202;10.948;2023-03-14T02:42:22;0.77;;;0.40;;
26540;SDS011;14206;50.202;10.948;2023-03-14T02:44:51;0.30;;;0.30;;
26540;SDS011;14206;50.202;10.948;2023-03-14T02:47:44;0.55;;;0.50;;
26540;SDS011;14206;50.202;10.948;2023-03-14T02:50:17;1.27;;;0.50;;
26540;SDS011;14206;50.202;10.948;2023-03-14T02:52:46;1.50;;;0.55;;
26540;SDS011;14206;50.202;10.948;2023-03-14T02:55:13;0.70;;;0.47;;
26540;SDS011;14206;50.202;10.948;2023-03-14T02:57:43;1.42;;;0.52;;
26540;SDS011;14206;50.202;10.948;2023-03-14T03:00:10;0.57;;;0.55;;
26540;SDS011;14206;50.202;10.948;2023-03-14T03:02:38;1.05;;;0.50;;
26540;SDS011;14206;50.202;10.948;2023-03-14T03:05:04;0.55;;;0.50;;
26540;SDS011;14206;50.202;10.948;2023-03-14T03:07:31;2.25;;;0.63;;
26540;SDS011;14206;50.202;10.948;2023-03-14T03:09:58;0.50;;;0.50;;
26540;SDS011;14206;50.202;10.948;2023-03-14T03:12:25;0.88;;;0.50;;
26540;SDS011;14206;50.202;10.948;2023-03-14T03:14:52;0.73;;;0.50;;
26540;SDS011;14206;50.202;10.948;2023-03-14T03:17:19;1.42;;;0.70;;
26540;SDS011;14206;50.202;10.948;2023-03-14T03:19:46;1.13;;;0.50;;
26540;SDS011;14206;50.202;10.948;2023-03-14T03:22:12;1.55;;;0.60;;
26540;SDS011;14206;50.202;10.948;2023-03-14T03:24:39;2.72;;;0.80;;
26540;SDS011;14206;50.202;10.948;2023-03-14T03:27:06;1.27;;;0.65;;
26540;SDS011;14206;50.202;10.948;2023-03-14T03:29:33;1.38;;;0.70;;
26540;SDS011;14206;50.202;10.948;2023-03-14T03:32:01;2.95;;;0.73;;
26540;SDS011;14206;50.202;10.948;2023-03-14T03:34:27;0.70;;;0.63;;
26540;SDS011;14206;50.202;10.948;2023-03-14T03:36:56;0.52;;;0.50;;
26540;SDS011;14206;50.202;10.948;2023-03-14T03:39:25;1.27;;;0.60;;
26540;SDS011;14206;50.202;10.948;2023-03-14T03:41:51;1.17;;;0.80;;
26540;SDS011;14206;50.202;10.948;2023-03-14T03:44:19;0.88;;;0.50;;
26540;SDS011;14206;50.202;10.948;2023-03-14T03:46:46;2.95;;;0.60;;
26540;SDS011;14206;50.202;10.948;2023-03-14T03:49:12;1.05;;;0.80;;
26540;SDS011;14206;50.202;10.948;2023-03-14T03:51:39;1.13;;;0.68;;
26540;SDS011;14206;50.202;10.948;2023-03-14T03:54:07;1.45;;;0.70;;
26540;SDS011;14206;50.202;10.948;2023-03-14T03:56:34;0.90;;;0.63;;
26540;SDS011;14206;50.202;10.948;2023-03-14T03:59:00;1.10;;;0.50;;
26540;SDS011;14206;50.202;10.948;2023-03-14T04:01:27;1.92;;;0.60;;
26540;SDS011;14206;50.202;10.948;2023-03-14T04:03:57;1.05;;;0.60;;
26540;SDS011;14206;50.202;10.948;2023-03-14T04:06:25;6.00;;;0.80;;
26540;SDS011;14206;50.202;10.948;2023-03-14T04:08:54;1.15;;;0.80;;
26540;SDS011;14206;50.202;10.948;2023-03-14T04:11:53;2.10;;;0.70;;
26540;SDS011;14206;50.202;10.948;2023-03-14T04:14:20;2.20;;;0.60;;
26540;SDS011;14206;50.202;10.948;2023-03-14T04:16:55;2.30;;;0.60;;
26540;SDS011;14206;50.202;10.948;2023-03-14T04:19:21;0.85;;;0.75;;
26540;SDS011;14206;50.202;10.948;2023-03-14T04:21:50;1.70;;;0.73;;
26540;SDS011;14206;50.202;10.948;2023-03-14T04:24:19;1.00;;;0.55;;
26540;SDS011;14206;50.202;10.948;2023-03-14T04:26:47;0.93;;;0.60;;
26540;SDS011;14206;50.202;10.948;2023-03-14T04:29:14;1.52;;;0.80;;
26540;SDS011;14206;50.202;10.948;2023-03-14T04:31:43;1.70;;;0.70;;
26540;SDS011;14206;50.202;10.948;2023-03-14T04:34:10;2.15;;;0.60;;
26540;SDS011;14206;50.202;10.948;2023-03-14T04:36:47;3.47;;;0.80;;
26540;SDS011;14206;50.202;10.948;2023-03-14T04:39:18;1.35;;;0.80;;
26540;SDS011;14206;50.202;10.948;2023-03-14T04:41:52;1.35;;;0.60;;
26540;SDS011;14206;50.202;10.948;2023-03-14T04:44:19;1.23;;;0.63;;
26540;SDS011;14206;50.202;10.948;2023-03-14T04:46:49;1.35;;;0.73;;
26540;SDS011;14206;50.202;10.948;2023-03-14T04:49:16;2.25;;;0.80;;
26540;SDS011;14206;50.202;10.948;2023-03-14T04:51:44;1.10;;;0.60;;
26540;SDS011;14206;50.202;10.948;2023-03-14T04:54:10;1.13;;;0.75;;
26540;SDS011;14206;50.202;10.948;2023-03-14T04:56:37;1.88;;;0.70;;
26540;SDS011;14206;50.202;10.948;2023-03-14T04:59:04;2.95;;;0.70;;
26540;SDS011;14206;50.202;10.948;2023-03-14T05:01:33;1.42;;;0.63;;
26540;SDS011;14206;50.202;10.948;2023-03-14T05:04:18;1.30;;;0.60;;
26540;SDS011;14206;50.202;10.948;2023-03-14T05:06:58;1.98;;;0.70;;
26540;SDS011;14206;50.202;10.948;2023-03-14T05:09:43;2.45;;;0.80;;
26540;SDS011;14206;50.202;10.948;2023-03-14T05:12:22;2.10;;;0.68;;
26540;SDS011;14206;50.202;10.948;2023-03-14T05:14:53;1.63;;;0.68;;
26540;SDS011;14206;50.202;10.948;2023-03-14T05:17:55;1.30;;;0.70;;
26540;SDS011;14206;50.202;10.948;2023-03-14T05:20:37;1.67;;;0.80;;
26540;SDS011;14206;50.202;10.948;2023-03-14T05:23:19;2.17;;;0.90;;
26540;SDS011;14206;50.202;10.948;2023-03-14T05:25:59;2.92;;;0.88;;
26540;SDS011;14206;50.202;10.948;2023-03-14T05:28:29;2.13;;;0.70;;
26540;SDS011;14206;50.202;10.948;2023-03-14T05:31:14;2.13;;;0.77;;
26540;SDS011;14206;50.202;10.948;2023-03-14T05:33:41;3.00;;;0.90;;
26540;SDS011;14206;50.202;10.948;2023-03-14T05:36:27;1.73;;;0.75;;
26540;SDS011;14206;50.202;10.948;2023-03-14T05:39:11;3.03;;;1.00;;
26540;SDS011;14206;50.202;10.948;2023-03-14T05:41:56;2.55;;;0.80;;
26540;SDS011;14206;50.202;10.948;2023-03-14T05:44:49;2.45;;;0.60;;
26540;SDS011;14206;50.202;10.948;2023-03-14T05:47:35;2.53;;;0.70;;
26540;SDS011;14206;50.202;10.948;2023-03-14T05:50:26;1.52;;;0.80;;
26540;SDS011;14206;50.202;10.948;2023-03-14T05:53:03;2.78;;;0.75;;
26540;SDS011;14206;50.202;10.948;2023-03-14T05:55:42;2.47;;;0.70;;
26540;SDS011;14206;50.202;10.948;2023-03-14T05:58:17;3.45;;;0.85;;
26540;SDS011;14206;50.202;10.948;2023-03-14T06:01:03;1.42;;;0.80;;
26540;SDS011;14206;50.202;10.948;2023-03-14T06:03:42;2.30;;;0.70;;
26540;SDS011;14206;50.202;10.948;2023-03-14T06:06:09;1.83;;;0.75;;
26540;SDS011;14206;50.202;10.948;2023-03-14T06:08:36;1.98;;;0.63;;
26540;SDS011;14206;50.202;10.948;2023-03-14T06:11:04;1.58;;;0.98;;
26540;SDS011;14206;50.202;10.948;2023-03-14T06:13:31;1.98;;;0.85;;
26540;SDS011;14206;50.202;10.948;2023-03-14T06:15:58;1.80;;;0.70;;
26540;SDS011;14206;50.202;10.948;2023-03-14T06:18:25;1.95;;;0.70;;
26540;SDS011;14206;50.202;10.948;2023-03-14T06:20:53;2.22;;;0.77;;
26540;SDS011;14206;50.202;10.948;2023-03-14T06:23:24;1.10;;;0.75;;
26540;SDS011;14206;50.202;10.948;2023-03-14T06:25:52;2.67;;;1.05;;
26540;SDS011;14206;50.202;10.948;2023-03-14T06:28:21;1.30;;;0.98;;
26540;SDS011;14206;50.202;10.948;2023-03-14T06:30:51;2.42;;;0.75;;
26540;SDS011;14206;50.202;10.948;2023-03-14T06:33:18;1.52;;;0.70;;
26540;SDS011;14206;50.202;10.948;2023-03-14T06:35:45;1.73;;;0.70;;
26540;SDS011;14206;50.202;10.948;2023-03-14T06:38:12;2.90;;;0.75;;
26540;SDS011;14206;50.202;10.948;2023-03-14T06:40:39;2.45;;;0.75;;
26540;SDS011;14206;50.202;10.948;2023-03-14T06:43:16;2.13;;;0.75;;
26540;SDS011;14206;50.202;10.948;2023-03-14T06:45:45;0.60;;;0.60;;
26540;SDS011;14206;50.202;10.948;2023-03-14T06:48:12;1.27;;;0.65;;
26540;SDS011;14206;50.202;10.948;2023-03-14T06:50:47;1.93;;;0.80;;
26540;SDS011;14206;50.202;10.948;2023-03-14T06:53:14;1.60;;;0.80;;
26540;SDS011;14206;50.202;10.948;2023-03-14T06:55:42;1.85;;;0.60;;
26540;SDS011;14206;50.202;10.948;2023-03-14T06:58:09;1.10;;;0.80;;
26540;SDS011;14206;50.202;10.948;2023-03-14T07:00:42;2.53;;;0.70;;
26540;SDS011;14206;50.202;10.948;2023-03-14T07:03:12;1.35;;;0.80;;
26540;SDS011;14206;50.202;10.948;2023-03-14T07:05:43;1.10;;;0.68;;
26540;SDS011;14206;50.202;10.948;2023-03-14T07:08:10;1.98;;;0.70;;
26540;SDS011;14206;50.202;10.948;2023-03-14T07:10:37;1.30;;;0.80;;
26540;SDS011;14206;50.202;10.948;2023-03-14T07:13:06;0.82;;;0.60;;
26540;SDS011;14206;50.202;10.948;2023-03-14T07:15:37;2.25;;;0.73;;
26540;SDS011;14206;50.202;10.948;2023-03-14T07:18:08;2.70;;;0.90;;
26540;SDS011;14206;50.202;10.948;2023-03-14T07:20:34;1.30;;;0.70;;
26540;SDS011;14206;50.202;10.948;2023-03-14T07:23:02;1.52;;;0.80;;
26540;SDS011;14206;50.202;10.948;2023-03-14T07:25:39;1.65;;;0.77;;
26540;SDS011;14206;50.202;10.948;2023-03-14T07:28:07;0.82;;;0.65;;
26540;SDS011;14206;50.202;10.948;2023-03-14T07:30:36;1.30;;;0.65;;
26540;SDS011;14206;50.202;10.948;2023-03-14T07:33:10;1.60;;;0.65;;
26540;SDS011;14206;50.202;10.948;2023-03-14T07:35:37;2.42;;;0.82;;
26540;SDS011;14206;50.202;10.948;2023-03-14T07:38:05;0.77;;;0.70;;
26540;SDS011;14206;50.202;10.948;2023-03-14T07:40:36;1.65;;;0.77;;
26540;SDS011;14206;50.202;10.948;2023-03-14T07:43:05;2.08;;;0.63;;
26540;SDS011;14206;50.202;10.948;2023-03-14T07:45:45;1.73;;;0.68;;
26540;SDS011;14206;50.202;10.948;2023-03-14T07:48:16;3.97;;;0.70;;
26540;SDS011;14206;50.202;10.948;2023-03-14T07:50:43;1.17;;;0.50;;
26540;SDS011;14206;50.202;10.948;2023-03-14T07:53:10;0.80;;;0.60;;
26540;SDS011;14206;50.202;10.948;2023-03-14T07:55:37;1.73;;;0.68;;
26540;SDS011;14206;50.202;10.948;2023-03-14T07:58:05;1.55;;;0.70;;
26540;SDS011;14206;50.202;10.948;2023-03-14T08:00:32;2.80;;;0.63;;
26540;SDS011;14206;50.202;10.948;2023-03-14T08:02:59;1.88;;;0.60;;
26540;SDS011;14206;50.202;10.948;2023-03-14T08:05:26;1.15;;;0.60;;
26540;SDS011;14206;50.202;10.948;2023-03-14T08:07:53;1.08;;;0.40;;
26540;SDS011;14206;50.202;10.948;2023-03-14T08:10:20;1.02;;;0.50;;
26540;SDS011;14206;50.202;10.948;2023-03-14T08:12:50;2.72;;;0.80;;
26540;SDS011;14206;50.202;10.948;2023-03-14T08:15:19;1.15;;;0.70;;
26540;SDS011;14206;50.202;10.948;2023-03-14T08:17:46;1.17;;;0.73;;
26540;SDS011;14206;50.202;10.948;2023-03-14T08:20:17;1.70;;;0.80;;
26540;SDS011;14206;50.202;10.948;2023-03-14T08:22:44;1.27;;;0.85;;
26540;SDS011;14206;50.202;10.948;2023-03-14T08:25:11;2.35;;;0.80;;
26540;SDS011;14206;50.202;10.948;2023-03-14T08:27:38;1.50;;;0.70;;
26540;SDS011;14206;50.202;10.948;2023-03-14T08:30:06;2.28;;;0.90;;
26540;SDS011;14206;50.202;10.948;2023-03-14T08:32:34;1.63;;;0.80;;
26540;SDS011;14206;50.202;10.948;2023-03-14T08:35:01;1.88;;;0.80;;
26540;SDS011;14206;50.202;10.948;2023-03-14T08:37:28;4.32;;;0.70;;
26540;SDS011;14206;50.202;10.948;2023-03-14T08:39:58;2.22;;;0.77;;
26540;SDS011;14206;50.202;10.948;2023-03-14T08:42:25;2.63;;;0.80;;
26540;SDS011;14206;50.202;10.948;2023-03-14T08:44:52;0.90;;;0.60;;
26540;SDS011;14206;50.202;10.948;2023-03-14T08:47:19;1.30;;;0.68;;
26540;SDS011;14206;50.202;10.948;2023-03-14T08:49:46;1.95;;;0.60;;
26540;SDS011;14206;50.202;10.948;2023-03-14T08:52:13;1.70;;;0.70;;
26540;SDS011;14206;50.202;10.948;2023-03-14T08:54:41;2.45;;;0.70;;
26540;SDS011;14206;50.202;10.948;2023-03-14T08:57:09;1.38;;;0.60;;
26540;SDS011;14206;50.202;10.948;2023-03-14T08:59:36;3.92;;;0.80;;
26540;SDS011;14206;50.202;10.948;2023-03-14T09:02:03;3.08;;;0.70;;
26540;SDS011;14206;50.202;10.948;2023-03-14T09:04:30;2.85;;;0.60;;
26540;SDS011;14206;50.202;10.948;2023-03-14T09:06:58;1.13;;;0.52;;
26540;SDS011;14206;50.202;10.948;2023-03-14T09:09:25;1.13;;;0.63;;
26540;SDS011;14206;50.202;10.948;2023-03-14T09:11:58;1.77;;;0.73;;
26540;SDS011;14206;50.202;10.948;2023-03-14T09:14:25;3.40;;;0.60;;
26540;SDS011;14206;50.202;10.948;2023-03-14T09:16:52;1.25;;;0.50;;
26540;SDS011;14206;50.202;10.948;2023-03-14T09:19:19;1.02;;;0.60;;
26540;SDS011;14206;50.202;10.948;2023-03-14T09:21:47;1.90;;;0.60;;
26540;SDS011;14206;50.202;10.948;2023-03-14T09:24:13;2.28;;;0.90;;
26540;SDS011;14206;50.202;10.948;2023-03-14T09:26:40;3.15;;;1.02;;
26540;SDS011;14206;50.202;10.948;2023-03-14T09:29:07;1.08;;;0.55;;
26540;SDS011;14206;50.202;10.948;2023-03-14T09:31:34;1.27;;;0.60;;
26540;SDS011;14206;50.202;10.948;2023-03-14T09:34:01;3.58;;;0.77;;
26540;SDS011;14206;50.202;10.948;2023-03-14T09:36:29;1.95;;;0.90;;
26540;SDS011;14206;50.202;10.948;2023-03-14T09:38:56;2.35;;;0.63;;
26540;SDS011;14206;50.202;10.948;2023-03-14T09:41:25;1.65;;;0.60;;
26540;SDS011;14206;50.202;10.948;2023-03-14T09:46:29;1.80;;;0.70;;
26540;SDS011;14206;50.202;10.948;2023-03-14T09:48:58;2.85;;;0.75;;
26540;SDS011;14206;50.202;10.948;2023-03-14T09:51:25;2.88;;;0.70;;
26540;SDS011;14206;50.202;10.948;2023-03-14T09:53:53;1.50;;;0.40;;
26540;SDS011;14206;50.202;10.948;2023-03-14T09:56:23;1.80;;;0.80;;
26540;SDS011;14206;50.202;10.948;2023-03-14T09:58:57;4.43;;;0.73;;
26540;SDS011;14206;50.202;10.948;2023-03-14T10:01:28;1.58;;;0.90;;
26540;SDS011;14206;50.202;10.948;2023-03-14T10:04:00;2.50;;;0.60;;
26540;SDS011;14206;50.202;10.948;2023-03-14T10:06:31;1.45;;;0.80;;
26540;SDS011;14206;50.202;10.948;2023-03-14T10:08:58;1.23;;;0.50;;
26540;SDS011;14206;50.202;10.948;2023-03-14T10:11:25;1.90;;;0.47;;
26540;SDS011;14206;50.202;10.948;2023-03-14T10:16:34;2.00;;;0.50;;
26540;SDS011;14206;50.202;10.948;2023-03-14T10:19:10;0.95;;;0.40;;
26540;SDS011;14206;50.202;10.948;2023-03-14T10:21:42;1.65;;;0.57;;
26540;SDS011;14206;50.202;10.948;2023-03-14T10:26:43;1.63;;;0.60;;
26540;SDS011;14206;50.202;10.948;2023-03-14T10:29:15;0.50;;;0.43;;
26540;SDS011;14206;50.202;10.948;2023-03-14T10:31:47;0.75;;;0.40;;
26540;SDS011;14206;50.202;10.948;2023-03-14T10:34:25;0.50;;;0.38;;
26540;SDS011;14206;50.202;10.948;2023-03-14T10:36:55;1.23;;;0.50;;
26540;SDS011;14206;50.202;10.948;2023-03-14T10:42:21;1.00;;;0.50;;
26540;SDS011;14206;50.202;10.948;2023-03-14T10:44:56;0.52;;;0.30;;
26540;SDS011;14206;50.202;10.948;2023-03-14T10:47:26;1.00;;;0.30;;
26540;SDS011;14206;50.202;10.948;2023-03-14T10:49:55;1.20;;;0.30;;
26540;SDS011;14206;50.202;10.948;2023-03-14T10:52:24;0.25;;;0.25;;
26540;SDS011;14206;50.202;10.948;2023-03-14T10:55:11;1.17;;;0.30;;
26540;SDS011;14206;50.202;10.948;2023-03-14T10:57:42;1.65;;;0.20;;
26540;SDS011;14206;50.202;10.948;2023-03-14T11:00:17;0.30;;;0.25;;
26540;SDS011;14206;50.202;10.948;2023-03-14T11:11:21;1.17;;;0.32;;
26540;SDS011;14206;50.202;10.948;2023-03-14T11:16:22;0.68;;;0.22;;
26540;SDS011;14206;50.202;10.948;2023-03-14T11:21:59;0.60;;;0.30;;
26540;SDS011;14206;50.202;10.948;2023-03-14T11:30:02;0.50;;;0.28;;
26540;SDS011;14206;50.202;10.948;2023-03-14T11:32:38;0.35;;;0.30;;
26540;SDS011;14206;50.202;10.948;2023-03-14T11:35:19;1.45;;;0.30;;
26540;SDS011;14206;50.202;10.948;2023-03-14T11:38:00;0.30;;;0.10;;
26540;SDS011;14206;50.202;10.948;2023-03-14T11:40:46;2.47;;;0.40;;
26540;SDS011;14206;50.202;10.948;2023-03-14T11:43:18;0.80;;;0.30;;
26540;SDS011;14206;50.202;10.948;2023-03-14T11:45:54;1.15;;;0.30;;
26540;SDS011;14206;50.202;10.948;2023-03-14T11:48:35;0.30;;;0.30;;
26540;SDS011;14206;50.202;10.948;2023-03-14T11:51:23;0.50;;;0.40;;
26540;SDS011;14206;50.202;10.948;2023-03-14T11:53:57;0.52;;;0.40;;
26540;SDS011;14206;50.202;10.948;2023-03-14T11:56:34;0.20;;;0.20;;
26540;SDS011;14206;50.202;10.948;2023-03-14T11:59:09;0.68;;;0.30;;
26540;SDS011;14206;50.202;10.948;2023-03-14T12:01:53;1.00;;;0.47;;
26540;SDS011;14206;50.202;10.948;2023-03-14T12:07:21;1.50;;;0.20;;
26540;SDS011;14206;50.202;10.948;2023-03-14T12:09:55;0.28;;;0.28;;
26540;SDS011;14206;50.202;10.948;2023-03-14T12:12:23;1.10;;;0.30;;
26540;SDS011;14206;50.202;10.948;2023-03-14T12:14:53;0.68;;;0.43;;
26540;SDS011;14206;50.202;10.948;2023-03-14T12:17:39;1.30;;;0.25;;
26540;SDS011;14206;50.202;10.948;2023-03-14T12:30:27;2.38;;;0.40;;
26540;SDS011;14206;50.202;10.948;2023-03-14T12:35:44;0.40;;;0.20;;
26540;SDS011;14206;50.202;10.948;2023-03-14T12:43:46;3.80;;;0.30;;
26540;SDS011;14206;50.202;10.948;2023-03-14T12:48:44;1.08;;;0.25;;
26540;SDS011;14206;50.202;10.948;2023-03-14T12:51:13;0.10;;;0.10;;
26540;SDS011;14206;50.202;10.948;2023-03-14T12:53:50;0.73;;;0.22;;
26540;SDS011;14206;50.202;10.948;2023-03-14T13:01:53;1.08;;;0.30;;
26540;SDS011;14206;50.202;10.948;2023-03-14T13:07:12;1.13;;;0.40;;
26540;SDS011;14206;50.202;10.948;2023-03-14T13:09:56;0.68;;;0.30;;
26540;SDS011;14206;50.202;10.948;2023-03-14T13:12:30;0.80;;;0.20;;
26540;SDS011;14206;50.202;10.948;2023-03-14T13:15:13;0.20;;;0.20;;
26540;SDS011;14206;50.202;10.948;2023-03-14T13:17:54;0.22;;;0.20;;
26540;SDS011;14206;50.202;10.948;2023-03-14T13:20:30;0.20;;;0.20;;
26540;SDS011;14206;50.202;10.948;2023-03-14T13:23:02;0.38;;;0.15;;
26540;SDS011;14206;50.202;10.948;2023-03-14T13:25:32;0.20;;;0.10;;
26540;SDS011;14206;50.202;10.948;2023-03-14T13:28:00;0.38;;;0.25;;
26540;SDS011;14206;50.202;10.948;2023-03-14T13:31:02;0.20;;;0.20;;
26540;SDS011;14206;50.202;10.948;2023-03-14T13:33:26;0.35;;;0.30;;
26540;SDS011;14206;50.202;10.948;2023-03-14T13:35:57;1.88;;;0.30;;
26540;SDS011;14206;50.202;10.948;2023-03-14T13:38:26;0.70;;;0.32;;
26540;SDS011;14206;50.202;10.948;2023-03-14T13:40:56;0.73;;;0.17;;
26540;SDS011;14206;50.202;10.948;2023-03-14T13:43:31;0.20;;;0.20;;
26540;SDS011;14206;50.202;10.948;2023-03-14T13:48:29;0.20;;;0.20;;
26540;SDS011;14206;50.202;10.948;2023-03-14T13:53:30;0.20;;;0.20;;
26540;SDS011;14206;50.202;10.948;2023-03-14T13:56:01;0.77;;;0.30;;
26540;SDS011;14206;50.202;10.948;2023-03-14T13:58:30;0.25;;;0.17;;
26540;SDS011;14206;50.202;10.948;2023-03-14T14:01:05;1.00;;;0.40;;
26540;SDS011;14206;50.202;10.948;2023-03-14T14:03:40;0.98;;;0.30;;
26540;SDS011;14206;50.202;10.948;2023-03-14T14:06:10;0.28;;;0.28;;
26540;SDS011;14206;50.202;10.948;2023-03-14T14:08:52;0.43;;;0.20;;
26540;SDS011;14206;50.202;10.948;2023-03-14T14:11:21;0.20;;;0.20;;
26540;SDS011;14206;50.202;10.948;2023-03-14T14:14:14;0.50;;;0.35;;
26540;SDS011;14206;50.202;10.948;2023-03-14T14:16:46;0.40;;;0.40;;
26540;SDS011;14206;50.202;10.948;2023-03-14T14:19:17;1.65;;;0.47;;
26540;SDS011;14206;50.202;10.948;2023-03-14T14:21:48;1.45;;;0.35;;
26540;SDS011;14206;50.202;10.948;2023-03-14T14:24:15;0.65;;;0.35;;
26540;SDS011;14206;50.202;10.948;2023-03-14T14:26:58;0.52;;;0.28;;
26540;SDS011;14206;50.202;10.948;2023-03-14T14:32:02;0.30;;;0.30;;
26540;SDS011;14206;50.202;10.948;2023-03-14T14:34:39;0.20;;;0.10;;
26540;SDS011;14206;50.202;10.948;2023-03-14T14:39:57;0.20;;;0.13;;
26540;SDS011;14206;50.202;10.948;2023-03-14T14:42:27;0.20;;;0.20;;
26540;SDS011;14206;50.202;10.948;2023-03-14T14:44:57;0.38;;;0.08;;
26540;SDS011;14206;50.202;10.948;2023-03-14T14:47:26;0.10;;;0.10;;
26540;SDS011;14206;50.202;10.948;2023-03-14T14:49:55;0.10;;;0.10;;
26540;SDS011;14206;50.202;10.948;2023-03-14T14:52:42;0.15;;;0.15;;
26540;SDS011;14206;50.202;10.948;2023-03-14T14:55:12;0.30;;;0.20;;
26540;SDS011;14206;50.202;10.948;2023-03-14T14:57:53;0.10;;;0.10;;
26540;SDS011;14206;50.202;10.948;2023-03-14T15:00:23;0.10;;;0.10;;
26540;SDS011;14206;50.202;10.948;2023-03-14T15:02:52;0.10;;;0.10;;
26540;SDS011;14206;50.202;10.948;2023-03-14T15:05:23;0.20;;;0.20;;
26540;SDS011;14206;50.202;10.948;2023-03-14T15:07:51;0.30;;;0.30;;
26540;SDS011;14206;50.202;10.948;2023-03-14T15:10:20;0.30;;;0.30;;
26540;SDS011;14206;50.202;10.948;2023-03-14T15:12:49;0.73;;;0.20;;
26540;SDS011;14206;50.202;10.948;2023-03-14T15:15:16;1.23;;;0.30;;
26540;SDS011;14206;50.202;10.948;2023-03-14T15:17:44;0.45;;;0.30;;
26540;SDS011;14206;50.202;10.948;2023-03-14T15:20:12;0.75;;;0.35;;
26540;SDS011;14206;50.202;10.948;2023-03-14T15:22:41;0.30;;;0.30;;
26540;SDS011;14206;50.202;10.948;2023-03-14T15:25:08;0.10;;;0.10;;
26540;SDS011;14206;50.202;10.948;2023-03-14T15:27:47;0.20;;;0.20;;
26540;SDS011;14206;50.202;10.948;2023-03-14T15:30:14;0.22;;;0.22;;
26540;SDS011;14206;50.202;10.948;2023-03-14T15:32:42;0.30;;;0.30;;
26540;SDS011;14206;50.202;10.948;2023-03-14T15:35:09;0.25;;;0.25;;
26540;SDS011;14206;50.202;10.948;2023-03-14T15:37:36;0.75;;;0.47;;
26540;SDS011;14206;50.202;10.948;2023-03-14T15:40:03;0.30;;;0.30;;
26540;SDS011;14206;50.202;10.948;2023-03-14T15:42:37;0.40;;;0.40;;
26540;SDS011;14206;50.202;10.948;2023-03-14T15:45:04;1.08;;;0.30;;
26540;SDS011;14206;50.202;10.948;2023-03-14T15:47:32;0.40;;;0.40;;
26540;SDS011;14206;50.202;10.948;2023-03-14T15:49:58;0.40;;;0.40;;
26540;SDS011;14206;50.202;10.948;2023-03-14T15:52:25;0.47;;;0.47;;
26540;SDS011;14206;50.202;10.948;2023-03-14T15:54:52;0.55;;;0.50;;
26540;SDS011;14206;50.202;10.948;2023-03-14T15:57:19;0.40;;;0.40;;
26540;SDS011;14206;50.202;10.948;2023-03-14T15:59:46;0.40;;;0.40;;
26540;SDS011;14206;50.202;10.948;2023-03-14T16:02:12;0.80;;;0.50;;
26540;SDS011;14206;50.202;10.948;2023-03-14T16:04:39;0.50;;;0.50;;
26540;SDS011;14206;50.202;10.948;2023-03-14T16:07:06;0.85;;;0.55;;
26540;SDS011;14206;50.202;10.948;2023-03-14T16:09:33;0.63;;;0.63;;
26540;SDS011;14206;50.202;10.948;2023-03-14T16:12:00;0.40;;;0.40;;